Casnovia, Michigan
Current Conditions -  °F | °C
As of 8:11 AM on Tuesday 21 Oct 2014 (Local Time) from KFFX Reporting Station
Overcast Overcast  
Wind Chill: 40°   Ceiling: 2000
Heat Index: 46°   Visibility: 10mi
Dew Point: 43°   Wind: 10mph
Humidity: 91%   Direction: 360°N
Pressure: 30.05"   Gusts: NA
Location:  43.23°N, 85.79°W
Report Text: KFFX 211211Z AUTO 36009KT 10SM OVC020 08/06 A3005 RMK AO2 T00750061
Loading
Personal Weather Stations






























Interactive Weather Map New forecast layout! Learn more

10-Day Weather Forecast

Advertisements
Track Severe Weather on mobile